Time;durP1;ratioP1;P1;durP2;ratioP2;P2;SDS_P1;SDS_P2;PMS_P1;PMS_P2;Temp;Humidity;BMP_temperature;BMP_pressure;BME280_temperature;BME280_humidity;BME280_pressure;Samples;Min_cycle;Max_cycle;Signal;HPM_P1;HPM_P2
2023/10/24 00:01:17;;;;;;;124.60;51.70;;;;;;;6.52;100.00;100301.70;674812;1261;139608;-84
2023/10/24 00:16:20;;;;;;;42.10;19.90;;;;;;;6.57;100.00;100300.71;674877;1260;139603;-84
2023/10/24 00:31:24;;;;;;;40.00;20.60;;;;;;;6.38;100.00;100296.27;675708;1264;143796;-83
2023/10/24 00:46:29;;;;;;;180.90;65.20;;;;;;;6.37;100.00;100290.60;674634;1263;139857;-83
2023/10/24 01:01:34;;;;;;;102.20;40.30;;;;;;;6.32;100.00;100281.25;675859;1262;148780;-84
2023/10/24 01:16:43;;;;;;;127.30;48.80;;;;;;;6.38;100.00;100277.63;675974;1264;139262;-84
2023/10/24 01:31:47;;;;;;;67.00;29.60;;;;;;;6.32;100.00;100275.00;675035;1259;139240;-83
2023/10/24 01:46:51;;;;;;;106.60;45.90;;;;;;;6.66;100.00;100275.34;675637;1261;137902;-83
2023/10/24 02:01:54;;;;;;;69.00;28.00;;;;;;;7.33;100.00;100270.48;675049;1260;139450;-84
2023/10/24 02:16:58;;;;;;;139.00;55.50;;;;;;;7.54;100.00;100261.98;674956;1259;139799;-83
2023/10/24 02:32:02;;;;;;;170.70;69.00;;;;;;;7.79;100.00;100256.23;675083;1275;140337;-82
2023/10/24 02:47:06;;;;;;;113.90;51.10;;;;;;;7.77;100.00;100246.98;675399;1259;139475;-83
2023/10/24 03:02:09;;;;;;;86.80;35.40;;;;;;;7.78;100.00;100226.86;675047;1263;139386;-83
2023/10/24 03:17:13;;;;;;;51.00;23.50;;;;;;;7.67;100.00;100224.83;673892;1263;138755;-83
2023/10/24 03:32:17;;;;;;;48.40;22.90;;;;;;;7.43;100.00;100237.22;674652;1264;139532;-83
2023/10/24 03:47:20;;;;;;;49.90;19.20;;;;;;;7.12;100.00;100257.11;675394;1259;138888;-83
2023/10/24 04:02:24;;;;;;;37.70;17.40;;;;;;;7.18;100.00;100266.22;675467;1262;139349;-83
2023/10/24 04:17:27;;;;;;;54.30;20.80;;;;;;;7.10;100.00;100259.81;674670;1263;139042;-83
2023/10/24 04:32:31;;;;;;;66.70;20.40;;;;;;;7.38;100.00;100244.20;675231;1263;139106;-83
2023/10/24 04:52:23;;;;;;;56.90;21.60;;;;;;;7.62;100.00;100238.04;655799;1302;544999;-82
2023/10/24 05:07:26;;;;;;;31.50;16.40;;;;;;;7.74;100.00;100236.23;674933;1263;139767;-83
2023/10/24 05:22:31;;;;;;;45.10;19.80;;;;;;;7.71;100.00;100228.33;674400;1265;139749;-82
2023/10/24 05:37:34;;;;;;;39.10;19.20;;;;;;;7.71;100.00;100239.08;674393;1264;138972;-82
2023/10/24 05:52:38;;;;;;;51.30;27.50;;;;;;;7.69;100.00;100259.48;674123;1264;138536;-83
2023/10/24 06:07:41;;;;;;;26.20;15.00;;;;;;;7.63;100.00;100268.63;677354;1265;137737;-82
2023/10/24 06:22:46;;;;;;;111.20;50.10;;;;;;;7.74;100.00;100250.86;674836;1259;138761;-82
2023/10/24 06:37:49;;;;;;;90.30;41.50;;;;;;;8.14;100.00;100241.19;673886;1264;138502;-83
2023/10/24 06:52:52;;;;;;;78.80;35.40;;;;;;;8.55;100.00;100270.02;673203;1259;138732;-83
2023/10/24 07:07:57;;;;;;;78.90;41.30;;;;;;;8.93;100.00;100244.55;673804;1265;138888;-83
2023/10/24 07:23:00;;;;;;;102.50;50.30;;;;;;;9.20;100.00;100217.66;674460;1264;138617;-81
2023/10/24 07:38:04;;;;;;;123.40;60.30;;;;;;;9.73;100.00;100214.70;673368;1259;139048;-82
2023/10/24 07:53:07;;;;;;;57.30;34.20;;;;;;;10.79;100.00;100214.88;673505;1259;139157;-82
2023/10/24 08:08:12;;;;;;;68.20;38.40;;;;;;;11.54;100.00;100213.48;673066;1265;139173;-80
2023/10/24 08:23:15;;;;;;;48.20;31.20;;;;;;;12.07;100.00;100204.90;673014;1262;139134;-83
2023/10/24 08:38:18;;;;;;;46.70;30.60;;;;;;;12.59;100.00;100201.14;673517;1264;139696;-82
2023/10/24 08:53:24;;;;;;;88.60;42.70;;;;;;;13.30;100.00;100178.67;673740;1263;139175;-84
2023/10/24 09:08:28;;;;;;;103.60;38.70;;;;;;;16.03;99.16;100175.84;673310;1267;141313;-82
2023/10/24 09:23:33;;;;;;;30.50;18.70;;;;;;;17.63;95.80;100134.05;673522;1265;138985;-85
2023/10/24 09:38:41;;;;;;;47.90;20.70;;;;;;;19.03;89.77;100125.89;672882;1265;139302;-84
2023/10/24 09:53:46;;;;;;;36.40;24.50;;;;;;;18.85;85.61;100124.02;672489;1275;139164;-83
2023/10/24 10:08:50;;;;;;;22.60;14.00;;;;;;;19.30;83.34;100089.30;672444;1265;139303;-84
2023/10/24 10:24:15;;;;;;;20.90;13.70;;;;;;;19.87;80.08;100076.31;672348;1265;139093;-83
2023/10/24 10:39:19;;;;;;;26.60;15.10;;;;;;;20.63;77.84;100059.65;673096;1262;138542;-84
2023/10/24 10:54:55;;;;;;;15.70;10.30;;;;;;;20.97;76.36;100032.27;676372;1265;139103;-84
2023/10/24 11:10:13;;;;;;;16.60;11.30;;;;;;;21.47;72.80;100006.92;672284;1271;138595;-84
2023/10/24 11:25:19;;;;;;;33.90;24.70;;;;;;;20.43;72.25;99996.81;672449;1265;139051;-84
2023/10/24 11:40:23;;;;;;;21.30;12.30;;;;;;;20.04;73.65;99991.94;673592;1262;138276;-83
2023/10/24 11:55:26;;;;;;;16.40;12.20;;;;;;;19.56;74.28;99977.54;675908;1265;138460;-84
2023/10/24 12:10:31;;;;;;;24.40;14.90;;;;;;;18.93;75.55;99957.92;673443;1265;138313;-85
2023/10/24 12:25:35;;;;;;;16.90;11.40;;;;;;;18.56;77.89;99947.85;672326;1261;138784;-85
2023/10/24 12:40:40;;;;;;;15.70;10.40;;;;;;;18.89;77.65;99911.23;672539;1263;139615;-86
2023/10/24 12:55:43;;;;;;;20.10;13.10;;;;;;;18.60;78.24;99889.46;672708;1265;139941;-85
2023/10/24 13:10:47;;;;;;;29.30;14.50;;;;;;;18.17;78.20;99897.94;673685;1265;138931;-85
2023/10/24 13:25:51;;;;;;;33.80;25.10;;;;;;;18.19;78.12;99889.71;672837;1266;139450;-83
2023/10/24 13:40:55;;;;;;;29.10;17.30;;;;;;;18.00;78.90;99876.39;681996;1264;138681;-84
2023/10/24 13:56:17;;;;;;;20.20;14.00;;;;;;;17.63;80.02;99873.11;681870;1265;138595;-82
2023/10/24 14:11:20;;;;;;;19.00;12.30;;;;;;;17.30;81.00;99860.42;681768;1265;138737;-83
2023/10/24 14:26:24;;;;;;;45.60;24.60;;;;;;;16.95;81.81;99852.84;682042;1265;138831;-83
2023/10/24 14:41:27;;;;;;;29.00;16.80;;;;;;;15.56;87.88;99833.76;681789;1265;138595;-83
2023/10/24 14:56:31;;;;;;;36.30;19.90;;;;;;;14.88;91.77;99819.34;681732;1268;139011;-83
2023/10/24 15:11:34;;;;;;;305.80;114.80;;;;;;;14.50;93.31;99808.67;681685;1265;138551;-84
2023/10/24 15:26:37;;;;;;;58.20;29.50;;;;;;;14.08;95.62;99796.00;679171;1278;139021;-85
2023/10/24 15:41:42;;;;;;;56.30;34.00;;;;;;;13.86;98.09;99778.80;674238;1277;138815;-84
2023/10/24 15:58:04;;;;;;;153.10;78.10;;;;;;;13.74;99.76;99763.89;657061;1298;545135;-86
2023/10/24 16:13:09;;;;;;;163.70;80.30;;;;;;;13.57;99.91;99734.58;672424;1275;138560;-86
2023/10/24 16:28:12;;;;;;;222.70;88.80;;;;;;;13.39;99.99;99730.90;670806;1275;138795;-87
2023/10/24 16:43:16;;;;;;;161.70;60.40;;;;;;;13.33;100.00;99730.65;670466;1280;138783;-89
2023/10/24 16:58:19;;;;;;;72.50;36.00;;;;;;;13.29;100.00;99716.42;670282;1273;138951;-85
2023/10/24 17:13:23;;;;;;;56.00;35.10;;;;;;;13.19;100.00;99692.53;670636;1276;141319;-87
2023/10/24 17:28:28;;;;;;;302.70;135.80;;;;;;;13.09;100.00;99672.83;670415;1272;139587;-86
2023/10/24 17:43:34;;;;;;;345.70;142.50;;;;;;;13.01;100.00;99638.77;671980;1288;138904;-86
2023/10/24 17:58:39;;;;;;;74.80;41.70;;;;;;;12.93;100.00;99628.41;669146;1272;139758;-85
2023/10/24 18:13:43;;;;;;;73.90;42.40;;;;;;;12.85;100.00;99646.68;670536;1285;139551;-86
2023/10/24 18:28:48;;;;;;;40.70;24.80;;;;;;;12.73;100.00;99627.05;674320;1274;139916;-86
2023/10/24 18:43:51;;;;;;;44.10;24.80;;;;;;;12.69;100.00;99636.45;669654;1275;139219;-86
2023/10/24 18:58:55;;;;;;;49.90;27.50;;;;;;;12.77;100.00;99618.36;669897;1272;139456;-85
2023/10/24 19:13:59;;;;;;;71.00;35.20;;;;;;;12.76;100.00;99612.00;669168;1276;139268;-86
2023/10/24 19:29:03;;;;;;;62.20;31.20;;;;;;;12.74;100.00;99598.85;668856;1275;139540;-86
2023/10/24 19:44:07;;;;;;;71.10;33.20;;;;;;;12.68;100.00;99569.33;669002;1275;139187;-85
2023/10/24 19:59:11;;;;;;;63.70;32.10;;;;;;;12.57;100.00;99551.81;670423;1274;139779;-84
2023/10/24 20:14:16;;;;;;;61.50;30.20;;;;;;;12.67;100.00;99538.96;672669;1280;140005;-85
2023/10/24 20:29:22;;;;;;;63.60;31.10;;;;;;;12.68;100.00;99515.48;672392;1275;139021;-83
2023/10/24 20:44:29;;;;;;;55.60;28.50;;;;;;;12.66;100.00;99482.27;674855;1283;139316;-85
2023/10/24 20:59:33;;;;;;;61.30;29.80;;;;;;;12.61;100.00;99452.24;671865;1282;139151;-84
2023/10/24 21:14:36;;;;;;;57.10;28.90;;;;;;;12.67;100.00;99440.89;672235;1272;139722;-84
2023/10/24 21:29:39;;;;;;;66.50;33.40;;;;;;;12.65;100.00;99413.40;672934;1274;139445;-84
2023/10/24 21:44:46;;;;;;;63.30;31.70;;;;;;;12.59;100.00;99382.83;671934;1274;139283;-85
2023/10/24 21:59:53;;;;;;;58.60;30.30;;;;;;;12.62;100.00;99359.30;675742;1263;139407;-85
2023/10/24 22:15:00;;;;;;;55.20;28.10;;;;;;;12.59;100.00;99333.02;675616;1264;138163;-84
2023/10/24 22:30:04;;;;;;;53.50;27.60;;;;;;;12.59;100.00;99326.50;675939;1264;139226;-84
2023/10/24 22:45:08;;;;;;;47.50;25.20;;;;;;;12.57;100.00;99323.61;677656;1263;138992;-84
2023/10/24 23:00:16;;;;;;;49.00;26.50;;;;;;;12.61;100.00;99309.23;674321;1264;139226;-84
2023/10/24 23:15:21;;;;;;;52.90;27.30;;;;;;;12.61;100.00;99287.02;673693;1260;139098;-82
2023/10/24 23:30:24;;;;;;;46.40;25.10;;;;;;;12.52;100.00;99269.24;673908;1263;139370;-82
2023/10/24 23:45:27;;;;;;;49.40;27.30;;;;;;;12.52;100.00;99240.67;672997;1264;139254;-83
